Pelzer, South Carolina
Current Conditions -  °F | °C
As of 8:35 PM on Friday 28 Nov 2014 (Local Time) from KGYH Reporting Station
Clear Clear  
Wind Chill: 34°   Ceiling: Unl
Heat Index: 34°   Visibility: 10mi
Dew Point: 19°   Wind: 3mph
Humidity: 56%   Direction: 210°SSW
Pressure: 30.29"   Gusts: NA
Location:  34.64°N, 82.46°W
Report Text: KGYH 290135Z AUTO 21003KT 10SM CLR 01/M07 A3029 RMK AO2
Loading
Personal Weather Stations






























Interactive Weather Map New forecast layout! Learn more

10-Day Weather Forecast

Advertisements
Track Severe Weather on mobile